Time;durP1;ratioP1;P1;durP2;ratioP2;P2;SDS_P1;SDS_P2;PMS_P1;PMS_P2;Temp;Humidity;BMP_temperature;BMP_pressure;BME280_temperature;BME280_humidity;BME280_pressure;Samples;Min_cycle;Max_cycle;Signal;HPM_P1;HPM_P2
2024/03/01 00:00:12;;;;;;;17.42;10.75;;;9.70;99.90;;;;;;4092261;28;20035;-68
2024/03/01 00:02:13;;;;;;;19.25;10.18;;;9.70;99.90;;;;;;4094031;28;20508;-70
2024/03/01 00:04:15;;;;;;;17.15;10.68;;;9.70;99.90;;;;;;4093367;28;20046;-67
2024/03/01 00:06:16;;;;;;;18.05;10.57;;;9.70;99.90;;;;;;4093403;28;20035;-68
2024/03/01 00:08:16;;;;;;;23.65;11.85;;;9.60;99.90;;;;;;4093312;28;20481;-68
2024/03/01 00:10:17;;;;;;;20.40;11.55;;;9.70;99.90;;;;;;4089181;28;20066;-68
2024/03/01 00:12:18;;;;;;;20.10;11.68;;;9.60;99.90;;;;;;4086607;29;20032;-67
2024/03/01 00:14:18;;;;;;;17.38;10.73;;;9.60;99.90;;;;;;4093588;28;20493;-67
2024/03/01 00:16:19;;;;;;;19.77;11.10;;;9.60;99.90;;;;;;4089739;28;20429;-67
2024/03/01 00:18:20;;;;;;;19.38;11.60;;;9.60;99.90;;;;;;4085688;29;20062;-68
2024/03/01 00:20:22;;;;;;;19.08;11.70;;;9.60;99.90;;;;;;4092171;28;20505;-69
2024/03/01 00:22:22;;;;;;;19.00;11.65;;;9.60;99.90;;;;;;4095410;28;20031;-69
2024/03/01 00:24:23;;;;;;;19.88;11.50;;;9.60;99.90;;;;;;4081643;29;20099;-67
2024/03/01 00:26:23;;;;;;;24.45;12.10;;;9.50;99.90;;;;;;4093444;28;20051;-68
2024/03/01 00:28:24;;;;;;;21.48;13.25;;;9.50;99.90;;;;;;4087309;28;20039;-67
2024/03/01 00:30:27;;;;;;;20.23;11.13;;;9.50;99.90;;;;;;4091104;28;20457;-68
2024/03/01 00:32:27;;;;;;;18.70;11.48;;;9.50;99.90;;;;;;4094584;28;20050;-67
2024/03/01 00:34:28;;;;;;;22.42;12.10;;;9.50;99.90;;;;;;4085955;28;20126;-68
2024/03/01 00:36:29;;;;;;;23.00;11.75;;;9.40;99.90;;;;;;4095027;28;20090;-68
2024/03/01 00:38:29;;;;;;;22.23;12.43;;;9.40;99.90;;;;;;4092650;28;20031;-67
2024/03/01 00:40:30;;;;;;;24.52;12.95;;;9.40;99.90;;;;;;4090863;28;20489;-67
2024/03/01 00:42:30;;;;;;;18.27;11.43;;;9.40;99.90;;;;;;4093696;28;20485;-67
2024/03/01 00:44:31;;;;;;;21.80;12.70;;;9.30;99.90;;;;;;4093874;28;20126;-67
2024/03/01 00:46:32;;;;;;;18.77;11.60;;;9.30;99.90;;;;;;4092151;28;20094;-67
2024/03/01 00:48:34;;;;;;;21.33;12.20;;;9.30;99.90;;;;;;4093653;28;20046;-68
2024/03/01 00:50:35;;;;;;;17.30;10.50;;;9.30;99.90;;;;;;4092118;28;20040;-68
2024/03/01 00:52:35;;;;;;;19.45;11.30;;;9.30;99.90;;;;;;4105974;28;20362;-67
2024/03/01 00:54:36;;;;;;;20.02;12.35;;;9.30;99.90;;;;;;4088893;28;20027;-67
2024/03/01 00:56:37;;;;;;;24.13;12.68;;;9.30;99.90;;;;;;4087692;28;20059;-67
2024/03/01 00:58:38;;;;;;;20.92;12.55;;;9.20;99.90;;;;;;4098725;28;20058;-67
2024/03/01 01:00:38;;;;;;;20.05;12.15;;;9.20;99.90;;;;;;4088668;28;20047;-67
2024/03/01 01:02:39;;;;;;;22.30;12.18;;;9.20;99.90;;;;;;4090389;28;20553;-68
2024/03/01 01:04:40;;;;;;;22.60;12.20;;;9.20;99.90;;;;;;4092652;28;20148;-67
2024/03/01 01:06:40;;;;;;;20.23;11.73;;;9.20;99.90;;;;;;4097112;28;20047;-66
2024/03/01 01:08:41;;;;;;;26.30;13.68;;;9.20;99.90;;;;;;4096087;28;20521;-67
2024/03/01 01:10:45;;;;;;;21.35;11.82;;;9.10;99.90;;;;;;4095397;28;20059;-66
2024/03/01 01:12:45;;;;;;;22.80;12.98;;;9.10;99.90;;;;;;4101119;28;20039;-67
2024/03/01 01:14:46;;;;;;;23.83;13.45;;;9.10;99.90;;;;;;4096588;28;20457;-68
2024/03/01 01:16:46;;;;;;;20.73;11.77;;;9.00;99.90;;;;;;4095637;28;20031;-70
2024/03/01 01:18:47;;;;;;;23.27;13.60;;;9.00;99.90;;;;;;4096115;28;20020;-69
2024/03/01 01:20:48;;;;;;;21.98;12.55;;;9.00;99.90;;;;;;4094575;28;20043;-69
2024/03/01 01:22:48;;;;;;;21.77;12.68;;;9.00;99.90;;;;;;4096220;28;20463;-68
2024/03/01 01:24:49;;;;;;;23.52;12.55;;;9.00;99.90;;;;;;4095242;28;20461;-69
2024/03/01 01:26:50;;;;;;;18.77;12.07;;;9.00;99.90;;;;;;4075557;29;20445;-69
2024/03/01 01:28:53;;;;;;;21.25;12.40;;;9.00;99.90;;;;;;4096195;28;20035;-69
2024/03/01 01:30:53;;;;;;;22.48;12.55;;;9.00;99.90;;;;;;4092407;28;20157;-69
2024/03/01 01:32:54;;;;;;;18.80;11.80;;;9.00;99.90;;;;;;4095807;28;20035;-69
2024/03/01 01:34:54;;;;;;;22.25;12.38;;;9.00;99.90;;;;;;4096742;28;20035;-69
2024/03/01 01:36:55;;;;;;;21.08;12.40;;;9.00;99.90;;;;;;4096723;28;20023;-69
2024/03/01 01:38:56;;;;;;;18.23;11.13;;;9.00;99.90;;;;;;4096034;28;20508;-69
2024/03/01 01:40:57;;;;;;;20.98;12.68;;;9.00;99.90;;;;;;4094472;28;20027;-69
2024/03/01 01:43:02;;;;;;;23.00;12.70;;;9.00;99.90;;;;;;4095939;28;20034;-69
2024/03/01 01:45:03;;;;;;;19.17;11.68;;;9.00;99.90;;;;;;4079884;29;20039;-69
2024/03/01 01:47:04;;;;;;;21.45;12.68;;;9.00;99.90;;;;;;4095600;28;20023;-69
2024/03/01 01:49:05;;;;;;;22.13;12.20;;;9.00;99.90;;;;;;4101157;28;20038;-69
2024/03/01 01:51:07;;;;;;;20.77;12.82;;;9.00;99.90;;;;;;4095649;28;20035;-69
2024/03/01 01:53:08;;;;;;;20.42;12.32;;;9.00;99.90;;;;;;4096335;28;20407;-69
2024/03/01 01:55:10;;;;;;;18.63;11.30;;;9.00;99.90;;;;;;4092875;28;20029;-69
2024/03/01 01:57:11;;;;;;;20.27;12.10;;;9.00;99.90;;;;;;4096179;28;20028;-71
2024/03/01 01:59:13;;;;;;;20.55;11.75;;;9.00;99.90;;;;;;4092747;28;20046;-69
2024/03/01 02:01:15;;;;;;;20.35;12.77;;;9.10;99.90;;;;;;4093966;28;20038;-69
2024/03/01 02:03:16;;;;;;;21.40;12.20;;;9.10;99.90;;;;;;4107585;28;20449;-69
2024/03/01 02:05:18;;;;;;;19.73;12.23;;;9.00;99.90;;;;;;4093533;28;20375;-69
2024/03/01 02:07:21;;;;;;;21.73;12.20;;;9.00;99.90;;;;;;4093990;28;20031;-69
2024/03/01 02:09:22;;;;;;;22.42;12.65;;;9.00;99.90;;;;;;4091849;28;20046;-68
2024/03/01 02:11:26;;;;;;;18.73;10.88;;;9.00;99.90;;;;;;4079690;29;20123;-68
2024/03/01 02:13:28;;;;;;;17.67;10.75;;;9.00;99.90;;;;;;4096007;28;20515;-69
2024/03/01 02:15:29;;;;;;;18.10;12.00;;;9.00;99.90;;;;;;4098423;28;20039;-69
2024/03/01 02:17:30;;;;;;;19.25;11.63;;;9.10;99.90;;;;;;4094781;28;20042;-69
2024/03/01 02:19:31;;;;;;;21.05;12.82;;;9.00;99.90;;;;;;4094481;28;20047;-70
2024/03/01 02:21:38;;;;;;;18.52;11.40;;;9.00;99.90;;;;;;4089151;28;20130;-70
2024/03/01 02:23:39;;;;;;;20.88;12.82;;;9.00;99.90;;;;;;4092458;28;20027;-69
2024/03/01 02:25:40;;;;;;;24.98;13.30;;;9.00;99.90;;;;;;4091693;29;20078;-67
2024/03/01 02:27:40;;;;;;;22.98;13.00;;;9.00;99.90;;;;;;4095739;28;20047;-67
2024/03/01 02:29:42;;;;;;;23.35;13.38;;;9.00;99.90;;;;;;4102151;28;20050;-69
2024/03/01 02:31:42;;;;;;;23.13;12.73;;;8.90;99.90;;;;;;4096029;28;20043;-67
2024/03/01 02:33:43;;;;;;;18.70;10.70;;;9.00;99.90;;;;;;4095037;28;20039;-68
2024/03/01 02:35:44;;;;;;;22.08;12.20;;;9.00;99.90;;;;;;4093486;28;20044;-68
2024/03/01 02:37:44;;;;;;;21.67;12.35;;;9.00;99.90;;;;;;4094537;28;20166;-67
2024/03/01 02:39:45;;;;;;;20.92;11.50;;;9.00;99.90;;;;;;4103522;28;20039;-67
2024/03/01 02:41:47;;;;;;;20.10;11.77;;;9.00;99.90;;;;;;4094847;28;20157;-68
2024/03/01 02:43:48;;;;;;;20.52;12.07;;;9.00;99.90;;;;;;4095821;28;20061;-67
2024/03/01 02:45:48;;;;;;;20.40;11.88;;;9.00;99.90;;;;;;4094365;28;20036;-68
2024/03/01 02:47:49;;;;;;;19.63;11.80;;;9.10;99.90;;;;;;4095432;28;20035;-67
2024/03/01 02:49:50;;;;;;;20.13;11.48;;;9.10;99.90;;;;;;4094476;28;20050;-67
2024/03/01 02:51:50;;;;;;;19.08;11.73;;;9.10;99.90;;;;;;4094127;28;20049;-68
2024/03/01 02:53:51;;;;;;;19.48;11.43;;;9.10;99.90;;;;;;4094054;28;20448;-67
2024/03/01 02:55:51;;;;;;;20.55;11.57;;;9.10;99.90;;;;;;4094271;28;20055;-67
2024/03/01 02:57:53;;;;;;;17.83;11.00;;;9.10;99.90;;;;;;4072193;29;20059;-67
2024/03/01 02:59:53;;;;;;;19.65;11.70;;;9.10;99.90;;;;;;4094559;28;20046;-67
2024/03/01 03:01:54;;;;;;;18.00;10.90;;;9.10;99.90;;;;;;4093974;28;20114;-68
2024/03/01 03:03:55;;;;;;;18.17;11.45;;;9.10;99.90;;;;;;4093432;28;20030;-69
2024/03/01 03:05:55;;;;;;;16.27;10.90;;;9.10;99.90;;;;;;4094354;28;20939;-69
2024/03/01 03:07:56;;;;;;;19.50;11.75;;;9.00;99.90;;;;;;4093533;28;20035;-69
2024/03/01 03:09:56;;;;;;;18.80;11.48;;;9.00;99.90;;;;;;4090042;28;20062;-69
2024/03/01 03:11:57;;;;;;;19.48;11.05;;;9.00;99.90;;;;;;4094169;28;20035;-69
2024/03/01 03:13:58;;;;;;;17.38;11.07;;;9.10;99.90;;;;;;4095631;28;20031;-69
2024/03/01 03:15:58;;;;;;;18.02;11.23;;;9.10;99.90;;;;;;4094475;28;20039;-69
2024/03/01 03:17:59;;;;;;;19.60;10.82;;;9.00;99.90;;;;;;4094944;28;20050;-69
2024/03/01 03:20:00;;;;;;;18.42;11.00;;;9.00;99.90;;;;;;4098661;28;20110;-69
2024/03/01 03:22:08;;;;;;;19.13;10.63;;;9.00;99.90;;;;;;4094463;28;20047;-69
2024/03/01 03:24:09;;;;;;;18.75;11.32;;;9.00;99.90;;;;;;4091199;28;20039;-69
2024/03/01 03:26:10;;;;;;;19.65;12.45;;;9.00;99.90;;;;;;4080341;28;20051;-69
2024/03/01 03:28:11;;;;;;;22.52;12.23;;;8.90;99.90;;;;;;4093774;28;20039;-70
2024/03/01 03:30:12;;;;;;;20.65;11.82;;;8.90;99.90;;;;;;4090068;28;20050;-69
2024/03/01 03:32:12;;;;;;;18.17;11.32;;;9.00;99.90;;;;;;4091234;28;20126;-69
2024/03/01 03:34:13;;;;;;;19.25;11.55;;;9.00;99.90;;;;;;4094445;28;20050;-69
2024/03/01 03:36:13;;;;;;;19.15;10.68;;;9.00;99.90;;;;;;4091855;28;20053;-69
2024/03/01 03:38:14;;;;;;;18.52;10.80;;;8.90;99.90;;;;;;4094715;28;20047;-69
2024/03/01 03:40:15;;;;;;;19.33;11.23;;;9.00;99.90;;;;;;4099910;28;20039;-69
2024/03/01 03:42:18;;;;;;;18.83;11.30;;;8.90;99.90;;;;;;4094495;28;20043;-69
2024/03/01 03:44:18;;;;;;;19.90;11.63;;;8.90;99.90;;;;;;4094451;28;20042;-69
2024/03/01 03:46:19;;;;;;;23.42;11.55;;;8.90;99.90;;;;;;4093085;28;20043;-69
2024/03/01 03:48:20;;;;;;;27.63;14.02;;;8.90;99.90;;;;;;4093882;28;20069;-70
2024/03/01 03:50:20;;;;;;;23.67;11.80;;;8.80;99.90;;;;;;4093008;28;20066;-69
2024/03/01 03:52:21;;;;;;;21.13;11.68;;;8.80;99.90;;;;;;4093444;28;20058;-69
2024/03/01 03:54:22;;;;;;;21.80;13.02;;;8.80;99.90;;;;;;4094916;28;20039;-69
2024/03/01 03:56:23;;;;;;;23.65;13.32;;;8.80;99.90;;;;;;4091033;28;20169;-68
2024/03/01 03:58:23;;;;;;;25.45;13.80;;;8.90;99.90;;;;;;4095334;28;20035;-69
2024/03/01 04:00:24;;;;;;;23.45;13.30;;;8.80;99.90;;;;;;4092430;28;20964;-69
2024/03/01 04:02:25;;;;;;;23.35;12.80;;;8.90;99.90;;;;;;4090419;28;20110;-69
2024/03/01 04:04:25;;;;;;;19.73;12.18;;;8.90;99.90;;;;;;4093691;28;20397;-69
2024/03/01 04:06:26;;;;;;;21.02;12.48;;;8.90;99.90;;;;;;4090159;28;20417;-69
2024/03/01 04:08:27;;;;;;;22.20;12.73;;;8.80;99.90;;;;;;4085133;28;20046;-70
2024/03/01 04:10:29;;;;;;;21.33;12.63;;;8.90;99.90;;;;;;4088098;28;20464;-69
2024/03/01 04:12:30;;;;;;;22.40;13.63;;;8.90;99.90;;;;;;4093182;28;20631;-71
2024/03/01 04:14:30;;;;;;;21.85;12.93;;;8.90;99.90;;;;;;4094741;28;20160;-70
2024/03/01 04:16:31;;;;;;;22.20;12.88;;;8.80;99.90;;;;;;4091588;28;20109;-70
2024/03/01 04:18:37;;;;;;;23.10;13.77;;;8.90;99.90;;;;;;4092653;28;20043;-69
2024/03/01 04:20:37;;;;;;;22.08;13.02;;;8.90;99.90;;;;;;4088997;28;20045;-70
2024/03/01 04:22:38;;;;;;;23.20;13.05;;;8.90;99.90;;;;;;4094449;28;20039;-70
2024/03/01 04:24:39;;;;;;;18.65;11.15;;;8.90;99.90;;;;;;4095846;28;20497;-70
2024/03/01 04:26:40;;;;;;;19.65;12.30;;;8.90;99.90;;;;;;4093314;28;20568;-70
2024/03/01 04:28:41;;;;;;;20.45;12.40;;;8.90;99.90;;;;;;4093658;28;20552;-69
2024/03/01 04:30:41;;;;;;;20.55;12.95;;;8.90;99.90;;;;;;4076917;29;20123;-70
2024/03/01 04:32:42;;;;;;;20.23;12.18;;;8.90;99.90;;;;;;4093566;28;20402;-70
2024/03/01 04:34:43;;;;;;;25.65;12.40;;;8.90;99.90;;;;;;4089880;28;20828;-70
2024/03/01 04:36:44;;;;;;;19.88;11.80;;;8.90;99.90;;;;;;4090947;28;20387;-67
2024/03/01 04:38:44;;;;;;;21.23;12.82;;;9.00;99.90;;;;;;4092654;28;20193;-67
2024/03/01 04:40:45;;;;;;;19.98;11.73;;;9.00;99.90;;;;;;4093208;28;20031;-67
2024/03/01 04:42:46;;;;;;;16.35;10.30;;;9.00;99.90;;;;;;4082217;28;20494;-67
2024/03/01 04:44:46;;;;;;;21.08;12.32;;;9.00;99.90;;;;;;4097244;28;20068;-68
2024/03/01 04:46:47;;;;;;;22.27;12.43;;;9.00;99.90;;;;;;4095911;28;20036;-67
2024/03/01 04:48:47;;;;;;;18.35;10.82;;;9.10;99.90;;;;;;4097744;28;20207;-68
2024/03/01 04:50:48;;;;;;;18.95;11.40;;;9.10;99.90;;;;;;4095201;28;20390;-67
2024/03/01 04:52:49;;;;;;;18.42;11.02;;;9.10;99.90;;;;;;4097138;28;20036;-67
2024/03/01 04:54:49;;;;;;;23.60;12.73;;;9.10;99.90;;;;;;4081826;28;20059;-67
2024/03/01 04:56:52;;;;;;;19.45;11.43;;;9.10;99.90;;;;;;4091386;28;20079;-68
2024/03/01 04:58:53;;;;;;;17.30;10.40;;;9.10;99.90;;;;;;4096010;28;20059;-67
2024/03/01 05:00:53;;;;;;;16.27;10.55;;;9.10;99.90;;;;;;4066734;29;20114;-69
2024/03/01 05:02:54;;;;;;;19.20;11.73;;;9.20;99.90;;;;;;4096538;28;20036;-68
2024/03/01 05:04:56;;;;;;;17.40;10.55;;;9.20;99.90;;;;;;4083837;28;20066;-68
2024/03/01 05:06:57;;;;;;;17.35;10.45;;;9.20;99.90;;;;;;4100801;28;20046;-69
2024/03/01 05:08:57;;;;;;;18.05;11.27;;;9.20;99.90;;;;;;4093577;28;20532;-69
2024/03/01 05:10:58;;;;;;;18.58;10.95;;;9.20;99.90;;;;;;4093993;28;20039;-69
2024/03/01 05:12:59;;;;;;;18.75;11.00;;;9.20;99.90;;;;;;4096248;28;20511;-69
2024/03/01 05:14:59;;;;;;;19.30;10.90;;;9.20;99.90;;;;;;4092082;28;20046;-70
2024/03/01 05:17:00;;;;;;;17.80;10.43;;;9.20;99.90;;;;;;4089554;28;20035;-69
2024/03/01 05:19:00;;;;;;;17.45;10.05;;;9.20;99.90;;;;;;4074915;29;20036;-69
2024/03/01 05:21:01;;;;;;;16.52;10.50;;;9.20;99.90;;;;;;4088384;28;20141;-69
2024/03/01 05:23:02;;;;;;;18.55;10.60;;;9.20;99.90;;;;;;4090349;28;20027;-69
2024/03/01 05:25:14;;;;;;;16.75;9.65;;;9.20;99.90;;;;;;4090616;28;20039;-69
2024/03/01 05:27:15;;;;;;;14.90;9.50;;;9.30;99.90;;;;;;4096579;28;20036;-69
2024/03/01 05:29:17;;;;;;;16.50;9.63;;;9.30;99.90;;;;;;4096677;28;20698;-69
2024/03/01 05:31:18;;;;;;;14.57;8.80;;;9.30;99.90;;;;;;4079382;28;20051;-70
2024/03/01 05:33:19;;;;;;;15.30;8.98;;;9.40;99.90;;;;;;4096889;28;20114;-70
2024/03/01 05:35:21;;;;;;;16.20;9.13;;;9.40;99.90;;;;;;4095216;28;20046;-69
2024/03/01 05:37:21;;;;;;;14.25;8.88;;;9.30;99.90;;;;;;4094903;28;20730;-69
2024/03/01 05:39:22;;;;;;;15.75;9.00;;;9.30;99.90;;;;;;4097130;28;20031;-70
2024/03/01 05:41:22;;;;;;;14.82;9.13;;;9.40;99.90;;;;;;4090965;28;20043;-69
2024/03/01 05:43:23;;;;;;;16.92;9.15;;;9.40;99.90;;;;;;4091033;28;20050;-69
2024/03/01 05:45:24;;;;;;;13.15;8.75;;;9.40;99.90;;;;;;4072801;29;20408;-70
2024/03/01 05:47:25;;;;;;;14.80;8.77;;;9.40;99.90;;;;;;4077862;29;20099;-68
2024/03/01 05:49:25;;;;;;;13.02;8.05;;;9.40;99.90;;;;;;4093981;28;20110;-69
2024/03/01 05:51:26;;;;;;;14.25;8.63;;;9.40;99.90;;;;;;4090005;28;20500;-67
2024/03/01 05:53:28;;;;;;;15.07;8.98;;;9.30;99.90;;;;;;4088401;28;20036;-65
2024/03/01 05:55:28;;;;;;;15.85;9.82;;;9.30;99.90;;;;;;4090096;28;20113;-69
2024/03/01 05:57:39;;;;;;;16.10;9.57;;;9.30;99.90;;;;;;4090466;28;20477;-71
2024/03/01 05:59:40;;;;;;;15.80;9.45;;;9.30;99.90;;;;;;4097393;28;20132;-70
2024/03/01 06:01:41;;;;;;;15.05;9.48;;;9.30;99.90;;;;;;4091627;28;20035;-70
2024/03/01 06:03:41;;;;;;;13.40;8.32;;;9.30;99.90;;;;;;4077656;29;20190;-68
2024/03/01 06:05:42;;;;;;;13.13;8.48;;;9.20;99.90;;;;;;4096728;28;20039;-69
2024/03/01 06:07:43;;;;;;;11.77;7.35;;;9.20;99.90;;;;;;4096621;28;20584;-69
2024/03/01 06:09:44;;;;;;;8.55;6.20;;;9.20;99.90;;;;;;4092539;28;20089;-72
2024/03/01 06:11:45;;;;;;;7.28;4.70;;;9.10;99.90;;;;;;4096148;28;21017;-69
2024/03/01 06:13:55;;;;;;;5.75;3.60;;;9.10;99.90;;;;;;4084357;28;20099;-71
2024/03/01 06:15:58;;;;;;;5.60;3.08;;;9.10;99.90;;;;;;4096607;28;20038;-69
2024/03/01 06:17:59;;;;;;;3.28;2.13;;;9.10;99.90;;;;;;4084748;28;20048;-69
2024/03/01 06:20:00;;;;;;;3.13;2.00;;;9.10;99.90;;;;;;4098505;28;20047;-69
2024/03/01 06:22:01;;;;;;;2.25;1.80;;;9.10;99.90;;;;;;4093970;28;20082;-70
2024/03/01 06:24:01;;;;;;;3.28;1.95;;;9.10;99.90;;;;;;4094736;28;20047;-70
2024/03/01 06:26:02;;;;;;;3.67;1.80;;;9.00;99.90;;;;;;4098005;28;20101;-69
2024/03/01 06:28:03;;;;;;;1.77;1.55;;;9.00;99.90;;;;;;4077232;28;20046;-69
2024/03/01 06:30:05;;;;;;;2.22;1.77;;;9.00;99.90;;;;;;4077420;28;20066;-70
2024/03/01 06:32:08;;;;;;;1.20;1.10;;;8.90;99.90;;;;;;4086908;28;20050;-69
2024/03/01 06:34:09;;;;;;;1.27;1.17;;;8.90;99.90;;;;;;4096977;28;20283;-70
2024/03/01 06:36:09;;;;;;;0.88;0.77;;;8.90;99.90;;;;;;4097934;28;20113;-69
2024/03/01 06:38:10;;;;;;;0.75;0.75;;;8.90;99.90;;;;;;4093864;28;20082;-70
2024/03/01 06:40:12;;;;;;;1.15;1.10;;;8.90;99.90;;;;;;4092549;28;20113;-69
2024/03/01 06:42:13;;;;;;;0.93;0.90;;;8.80;99.90;;;;;;4093506;28;20110;-69
2024/03/01 06:44:14;;;;;;;1.45;1.20;;;8.80;99.90;;;;;;4081018;28;20103;-69
2024/03/01 06:46:15;;;;;;;1.30;1.20;;;8.80;99.90;;;;;;4096381;28;20442;-69
2024/03/01 06:48:15;;;;;;;1.17;1.08;;;8.80;99.90;;;;;;4083832;28;20500;-69
2024/03/01 06:50:16;;;;;;;1.75;1.02;;;8.80;99.90;;;;;;4094470;28;20031;-69
2024/03/01 06:52:16;;;;;;;1.65;1.17;;;8.80;99.90;;;;;;4068405;28;20618;-69
2024/03/01 06:54:17;;;;;;;1.80;1.60;;;8.90;99.90;;;;;;4080454;28;20031;-69
2024/03/01 06:56:18;;;;;;;1.50;1.10;;;8.90;99.90;;;;;;4093195;28;20039;-69
2024/03/01 06:58:18;;;;;;;2.45;1.63;;;8.90;99.90;;;;;;4092685;28;20102;-69
2024/03/01 07:00:19;;;;;;;1.42;1.27;;;8.80;99.90;;;;;;4097607;28;20126;-69
2024/03/01 07:02:19;;;;;;;1.85;1.65;;;8.90;99.90;;;;;;4098944;28;20051;-69
2024/03/01 07:04:20;;;;;;;2.03;1.50;;;8.80;99.90;;;;;;4091738;28;20199;-69
2024/03/01 07:06:21;;;;;;;1.95;1.75;;;8.90;99.90;;;;;;4094451;28;20105;-69
2024/03/01 07:08:22;;;;;;;3.17;1.85;;;8.90;99.90;;;;;;4095977;28;20678;-71
2024/03/01 07:10:25;;;;;;;2.78;2.33;;;8.90;99.90;;;;;;4094453;28;20043;-69
2024/03/01 07:12:26;;;;;;;2.72;2.00;;;9.00;99.90;;;;;;4096539;28;20040;-69
2024/03/01 07:14:26;;;;;;;3.17;2.08;;;9.00;99.90;;;;;;4097489;28;21328;-68
2024/03/01 07:16:27;;;;;;;2.60;2.30;;;9.00;99.90;;;;;;4091948;28;20553;-68
2024/03/01 07:18:28;;;;;;;3.10;2.67;;;9.00;99.90;;;;;;4096015;28;20127;-68
2024/03/01 07:20:29;;;;;;;2.42;2.00;;;9.00;99.90;;;;;;4071890;28;20049;-68
2024/03/01 07:22:29;;;;;;;3.08;2.40;;;9.00;99.90;;;;;;4080523;28;20024;-70
2024/03/01 07:24:36;;;;;;;2.45;2.15;;;9.10;99.90;;;;;;4053903;28;20050;-70
2024/03/01 07:26:46;;;;;;;3.33;2.45;;;9.10;99.90;;;;;;4075268;28;20074;-68
2024/03/01 07:28:48;;;;;;;3.67;2.30;;;9.10;99.90;;;;;;4067503;28;20044;-70
2024/03/01 07:30:48;;;;;;;3.42;2.85;;;9.10;99.90;;;;;;4082685;28;20548;-70
2024/03/01 07:32:50;;;;;;;3.55;2.58;;;9.10;99.90;;;;;;4094633;28;20829;-68
2024/03/01 07:34:51;;;;;;;3.67;2.65;;;9.10;99.90;;;;;;4094222;28;20114;-68
2024/03/01 07:36:52;;;;;;;3.17;2.83;;;9.10;99.90;;;;;;4082106;28;20054;-70
2024/03/01 07:38:55;;;;;;;4.57;3.30;;;9.10;99.90;;;;;;4069099;29;20071;-69
2024/03/01 07:40:56;;;;;;;3.80;3.15;;;9.10;99.90;;;;;;4091700;28;20039;-70
2024/03/01 07:42:56;;;;;;;4.80;3.55;;;9.10;99.90;;;;;;4085953;28;20051;-70
2024/03/01 07:44:57;;;;;;;5.05;3.53;;;9.20;99.90;;;;;;4094255;28;20484;-70
2024/03/01 07:46:58;;;;;;;5.15;3.92;;;9.10;99.90;;;;;;4092700;28;20114;-74
2024/03/01 07:48:59;;;;;;;6.18;4.55;;;9.10;99.90;;;;;;4090181;28;20047;-70
2024/03/01 07:50:59;;;;;;;5.47;4.32;;;9.00;99.90;;;;;;4058097;28;20040;-70
2024/03/01 07:53:00;;;;;;;4.47;3.83;;;9.10;99.90;;;;;;4070574;28;20067;-70
2024/03/01 07:55:02;;;;;;;5.32;4.30;;;9.10;99.90;;;;;;4090169;28;20050;-70
2024/03/01 07:57:02;;;;;;;4.43;4.00;;;9.10;99.90;;;;;;4091549;28;20043;-70
2024/03/01 07:59:04;;;;;;;6.82;4.85;;;9.10;99.90;;;;;;4082038;28;20043;-70
2024/03/01 08:01:05;;;;;;;7.10;5.32;;;9.10;99.90;;;;;;4080247;28;20042;-70
2024/03/01 08:03:08;;;;;;;5.25;4.75;;;9.00;99.90;;;;;;4087602;28;20697;-69
2024/03/01 08:05:10;;;;;;;7.70;4.35;;;9.00;99.90;;;;;;4093346;28;20074;-70
2024/03/01 08:07:17;;;;;;;5.47;4.50;;;9.00;99.90;;;;;;4095331;28;20069;-70
2024/03/01 08:09:26;;;;;;;6.05;4.43;;;9.00;99.90;;;;;;4095352;28;20051;-70
2024/03/01 08:11:44;;;;;;;6.53;4.45;;;8.90;99.90;;;;;;4086522;28;20069;-70
2024/03/01 08:13:54;;;;;;;6.00;4.40;;;8.90;99.90;;;;;;4092683;28;20043;-69
2024/03/01 08:15:57;;;;;;;5.85;4.18;;;8.90;99.90;;;;;;4095013;28;20097;-68
2024/03/01 08:18:06;;;;;;;;;;;8.80;99.90;;;;;;4055826;28;20043;-67
2024/03/01 08:20:52;;;;;;;4.07;3.17;;;8.90;99.90;;;;;;4097235;28;19910;-69
2024/03/01 08:22:53;;;;;;;4.47;3.78;;;8.90;99.90;;;;;;4091362;28;20036;-67
2024/03/01 08:24:55;;;;;;;3.40;2.97;;;8.90;99.90;;;;;;4089348;28;20066;-68
2024/03/01 08:26:55;;;;;;;4.22;3.03;;;8.90;99.90;;;;;;4092579;28;20378;-69
2024/03/01 08:29:00;;;;;;;3.90;3.10;;;8.90;99.90;;;;;;4088373;28;20054;-70
2024/03/01 08:31:04;;;;;;;4.95;2.80;;;8.90;99.90;;;;;;4087394;28;20510;-69
2024/03/01 08:33:04;;;;;;;3.30;2.75;;;8.90;99.90;;;;;;4084136;28;20383;-67
2024/03/01 08:35:07;;;;;;;2.58;2.25;;;8.80;99.90;;;;;;4076548;29;20065;-69
2024/03/01 08:37:07;;;;;;;3.63;2.88;;;8.90;99.90;;;;;;4077276;29;20040;-68
2024/03/01 08:39:16;;;;;;;3.13;2.47;;;8.90;99.90;;;;;;4092700;28;20125;-68
2024/03/01 08:41:17;;;;;;;2.63;2.15;;;8.90;99.90;;;;;;4088429;28;20210;-69
2024/03/01 08:43:17;;;;;;;5.93;3.05;;;8.90;99.90;;;;;;4092901;28;20569;-67
2024/03/01 08:45:41;;;;;;;3.78;2.40;;;8.90;99.90;;;;;;4092653;28;20051;-67
2024/03/01 08:47:52;;;;;;;2.70;2.22;;;8.80;99.90;;;;;;4091397;28;20569;-70
2024/03/01 08:50:08;;;;;;;2.95;1.98;;;8.90;99.90;;;;;;4081160;28;20218;-68
2024/03/01 08:52:33;;;;;;;3.67;2.25;;;8.90;99.90;;;;;;4090966;28;20069;-68
2024/03/01 08:54:34;;;;;;;2.35;2.10;;;8.90;99.90;;;;;;4088879;28;20070;-69
2024/03/01 08:56:36;;;;;;;2.65;2.20;;;8.90;99.90;;;;;;4082903;28;20523;-67
2024/03/01 08:58:44;;;;;;;4.43;2.60;;;9.00;99.90;;;;;;4090822;28;20039;-68
2024/03/01 09:00:53;;;;;;;2.58;2.15;;;8.90;99.90;;;;;;4092749;28;20047;-69
2024/03/01 09:02:54;;;;;;;3.15;2.10;;;9.00;99.90;;;;;;4092446;28;20051;-69
2024/03/01 09:04:55;;;;;;;3.80;2.65;;;8.90;99.90;;;;;;4093588;28;20043;-68
2024/03/01 09:07:13;;;;;;;3.60;2.58;;;8.90;99.90;;;;;;4092397;28;20033;-68
2024/03/01 09:09:22;;;;;;;3.35;2.00;;;9.00;99.90;;;;;;4044232;29;20050;-69
2024/03/01 09:11:23;;;;;;;2.28;2.05;;;8.90;99.90;;;;;;4069869;28;20537;-68
2024/03/01 09:13:31;;;;;;;2.83;1.90;;;8.90;99.90;;;;;;4088734;28;20043;-67
2024/03/01 09:15:50;;;;;;;2.78;2.08;;;8.90;99.90;;;;;;4071691;28;20082;-68
2024/03/01 09:17:53;;;;;;;3.20;1.92;;;9.00;99.90;;;;;;4068338;28;20027;-67
2024/03/01 09:19:55;;;;;;;2.72;2.20;;;9.00;99.90;;;;;;4075208;28;20044;-67
2024/03/01 09:21:57;;;;;;;3.72;2.33;;;9.00;99.90;;;;;;4037732;28;20418;-70
2024/03/01 09:24:07;;;;;;;3.08;2.25;;;9.10;99.90;;;;;;4029607;29;20394;-68
2024/03/01 09:26:15;;;;;;;4.35;2.47;;;9.20;99.90;;;;;;4041530;29;20036;-69
2024/03/01 09:28:21;;;;;;;2.85;2.38;;;9.20;99.90;;;;;;4067008;28;20042;-69
2024/03/01 09:30:28;;;;;;;4.45;2.47;;;9.30;99.90;;;;;;4040214;29;20258;-70
2024/03/01 09:32:33;;;;;;;2.67;2.25;;;9.40;99.90;;;;;;4035824;29;20919;-69
2024/03/01 09:34:43;;;;;;;2.85;2.30;;;9.50;99.90;;;;;;4044469;28;20055;-69
2024/03/01 09:36:46;;;;;;;3.10;2.33;;;9.60;99.90;;;;;;4056322;28;20150;-70
2024/03/01 09:39:04;;;;;;;3.47;2.50;;;9.80;99.90;;;;;;4061303;28;20063;-70
2024/03/01 09:41:42;;;;;;;3.47;2.10;;;9.90;99.90;;;;;;4057217;28;20121;-70
2024/03/01 09:44:20;;;;;;;3.45;2.03;;;10.10;99.90;;;;;;4061953;28;20079;-69
2024/03/01 09:46:36;;;;;;;4.35;2.70;;;10.20;99.90;;;;;;4066773;28;20049;-69
2024/03/01 09:49:27;;;;;;;6.60;2.33;;;10.40;99.90;;;;;;4051170;28;20045;-69
2024/03/01 09:51:48;;;;;;;6.43;2.10;;;10.50;99.90;;;;;;3993730;29;20033;-69
2024/03/01 09:54:01;;;;;;;3.28;2.15;;;10.60;99.90;;;;;;4046082;29;20452;-70
2024/03/01 09:56:24;;;;;;;2.85;1.75;;;10.70;99.90;;;;;;4012519;29;20037;-67
2024/03/01 09:58:47;;;;;;;3.05;2.00;;;10.80;99.90;;;;;;4028359;29;20402;-67
2024/03/01 10:01:20;;;;;;;2.53;1.80;;;10.80;99.90;;;;;;4072523;28;20031;-68
2024/03/01 10:04:14;;;;;;;4.43;2.22;;;10.70;99.90;;;;;;4060310;28;20386;-67
2024/03/01 10:06:34;;;;;;;2.67;1.80;;;10.80;99.90;;;;;;4019178;29;20036;-68
2024/03/01 10:09:11;;;;;;;4.63;2.38;;;10.90;99.90;;;;;;4078587;28;20035;-68
2024/03/01 10:11:38;;;;;;;2.50;1.75;;;11.00;99.90;;;;;;4037596;29;20041;-67
2024/03/01 10:14:16;;;;;;;3.80;1.88;;;11.00;99.90;;;;;;4077756;28;20400;-68
2024/03/01 10:16:50;;;;;;;2.42;1.60;;;11.00;99.90;;;;;;4039293;29;20449;-67
2024/03/01 10:19:30;;;;;;;4.32;2.00;;;11.10;99.90;;;;;;4060799;28;20043;-67
2024/03/01 10:22:17;;;;;;;5.03;2.05;;;11.10;99.90;;;;;;4047701;28;20524;-68
2024/03/01 10:24:35;;;;;;;4.00;1.90;;;11.10;99.90;;;;;;4071806;28;20095;-67
2024/03/01 10:26:42;;;;;;;3.90;1.95;;;11.20;99.90;;;;;;4065590;28;20448;-68
2024/03/01 10:29:01;;;;;;;4.50;2.00;;;11.20;99.90;;;;;;4059526;29;20032;-67
2024/03/01 10:31:26;;;;;;;3.08;1.83;;;11.20;99.90;;;;;;4079572;28;20075;-67
2024/03/01 10:33:33;;;;;;;3.88;1.90;;;11.30;99.90;;;;;;4079589;28;20038;-68
2024/03/01 10:36:00;;;;;;;1.92;1.33;;;11.30;99.90;;;;;;4069568;28;20528;-67
2024/03/01 10:38:15;;;;;;;3.30;1.90;;;11.30;99.90;;;;;;4090464;28;20039;-67
2024/03/01 10:40:30;;;;;;;4.18;1.65;;;11.40;99.90;;;;;;4067063;29;20533;-68
2024/03/01 10:42:31;;;;;;;2.92;1.70;;;11.40;99.90;;;;;;4097567;28;20038;-69
2024/03/01 10:44:56;;;;;;;3.53;2.13;;;11.40;99.90;;;;;;4077598;28;20031;-68